sensor_id;sensor_type;location;lat;lon;timestamp;pressure;altitude;pressure_sealevel;temperature
61703;BMP280;47622;47.726;3.298;2023-06-22T00:01:27;99069.91;;;20.24
61703;BMP280;47622;47.726;3.298;2023-06-22T00:03:53;99058.47;;;20.17
61703;BMP280;47622;47.726;3.298;2023-06-22T00:06:19;99055.38;;;20.11
61703;BMP280;47622;47.726;3.298;2023-06-22T00:08:44;99059.94;;;20.11
61703;BMP280;47622;47.726;3.298;2023-06-22T00:11:10;99052.66;;;20.04
61703;BMP280;47622;47.726;3.298;2023-06-22T00:13:35;99042.34;;;19.99
61703;BMP280;47622;47.726;3.298;2023-06-22T00:16:01;99037.78;;;20.00
61703;BMP280;47622;47.726;3.298;2023-06-22T00:18:27;99039.69;;;20.03
61703;BMP280;47622;47.726;3.298;2023-06-22T00:20:56;99036.00;;;20.11
61703;BMP280;47622;47.726;3.298;2023-06-22T00:23:25;99041.72;;;20.16
61703;BMP280;47622;47.726;3.298;2023-06-22T00:25:51;99044.06;;;20.25
61703;BMP280;47622;47.726;3.298;2023-06-22T00:28:17;99041.47;;;20.32
61703;BMP280;47622;47.726;3.298;2023-06-22T00:30:42;99044.13;;;20.32
61703;BMP280;47622;47.726;3.298;2023-06-22T00:33:09;99034.16;;;20.22
61703;BMP280;47622;47.726;3.298;2023-06-22T00:35:35;99034.53;;;20.24
61703;BMP280;47622;47.726;3.298;2023-06-22T00:38:01;99028.81;;;20.22
61703;BMP280;47622;47.726;3.298;2023-06-22T00:40:29;99034.28;;;20.36
61703;BMP280;47622;47.726;3.298;2023-06-22T00:42:56;99031.19;;;20.34
61703;BMP280;47622;47.726;3.298;2023-06-22T00:45:23;99039.53;;;20.33
61703;BMP280;47622;47.726;3.298;2023-06-22T00:47:56;99042.59;;;20.31
61703;BMP280;47622;47.726;3.298;2023-06-22T00:50:24;99028.50;;;20.34
61703;BMP280;47622;47.726;3.298;2023-06-22T00:52:57;99025.78;;;20.23
61703;BMP280;47622;47.726;3.298;2023-06-22T00:55:24;99003.78;;;20.30
61703;BMP280;47622;47.726;3.298;2023-06-22T00:57:53;99000.31;;;20.29
61703;BMP280;47622;47.726;3.298;2023-06-22T01:00:23;98994.22;;;20.29
61703;BMP280;47622;47.726;3.298;2023-06-22T01:02:52;98995.38;;;20.28
61703;BMP280;47622;47.726;3.298;2023-06-22T01:05:21;98993.84;;;20.27
61703;BMP280;47622;47.726;3.298;2023-06-22T01:08:20;98999.13;;;20.20
61703;BMP280;47622;47.726;3.298;2023-06-22T01:10:53;99004.88;;;20.25
61703;BMP280;47622;47.726;3.298;2023-06-22T01:16:35;99013.97;;;20.21
61703;BMP280;47622;47.726;3.298;2023-06-22T01:19:09;99011.41;;;20.32
61703;BMP280;47622;47.726;3.298;2023-06-22T01:21:40;99004.91;;;20.33
61703;BMP280;47622;47.726;3.298;2023-06-22T01:29:24;99057.38;;;20.25
61703;BMP280;47622;47.726;3.298;2023-06-22T01:31:51;99042.56;;;20.27
61703;BMP280;47622;47.726;3.298;2023-06-22T01:34:17;99041.06;;;20.30
61703;BMP280;47622;47.726;3.298;2023-06-22T01:36:44;99042.94;;;20.26
61703;BMP280;47622;47.726;3.298;2023-06-22T01:39:11;99050.94;;;20.26
61703;BMP280;47622;47.726;3.298;2023-06-22T01:41:39;99061.25;;;20.31
61703;BMP280;47622;47.726;3.298;2023-06-22T01:44:07;99059.38;;;20.35
61703;BMP280;47622;47.726;3.298;2023-06-22T01:46:38;99047.13;;;20.27
61703;BMP280;47622;47.726;3.298;2023-06-22T01:49:05;99030.34;;;20.23
61703;BMP280;47622;47.726;3.298;2023-06-22T01:51:31;99035.69;;;20.23
61703;BMP280;47622;47.726;3.298;2023-06-22T01:53:57;99045.22;;;20.27
61703;BMP280;47622;47.726;3.298;2023-06-22T01:56:23;99057.06;;;20.30
61703;BMP280;47622;47.726;3.298;2023-06-22T02:01:52;98981.66;;;20.22
61703;BMP280;47622;47.726;3.298;2023-06-22T02:04:24;98971.41;;;20.28
61703;BMP280;47622;47.726;3.298;2023-06-22T02:06:55;98979.31;;;20.14
61703;BMP280;47622;47.726;3.298;2023-06-22T02:09:23;98975.53;;;20.15
61703;BMP280;47622;47.726;3.298;2023-06-22T02:11:52;98955.69;;;20.12
61703;BMP280;47622;47.726;3.298;2023-06-22T02:14:23;98938.94;;;20.08
61703;BMP280;47622;47.726;3.298;2023-06-22T02:16:51;98935.13;;;20.02
61703;BMP280;47622;47.726;3.298;2023-06-22T02:19:16;98933.59;;;20.05
61703;BMP280;47622;47.726;3.298;2023-06-22T02:21:44;98922.50;;;19.95
61703;BMP280;47622;47.726;3.298;2023-06-22T02:24:10;98926.31;;;19.94
61703;BMP280;47622;47.726;3.298;2023-06-22T02:26:36;98917.63;;;20.05
61703;BMP280;47622;47.726;3.298;2023-06-22T02:29:03;98900.13;;;20.04
61703;BMP280;47622;47.726;3.298;2023-06-22T02:31:29;98881.13;;;20.05
61703;BMP280;47622;47.726;3.298;2023-06-22T02:33:58;98877.28;;;20.03
61703;BMP280;47622;47.726;3.298;2023-06-22T02:36:24;98865.88;;;19.99
61703;BMP280;47622;47.726;3.298;2023-06-22T02:38:52;98862.03;;;19.92
61703;BMP280;47622;47.726;3.298;2023-06-22T02:41:17;98859.75;;;19.94
61703;BMP280;47622;47.726;3.298;2023-06-22T02:43:46;98856.34;;;19.98
61703;BMP280;47622;47.726;3.298;2023-06-22T02:46:13;98860.19;;;20.07
61703;BMP280;47622;47.726;3.298;2023-06-22T02:48:39;98858.28;;;20.08
61703;BMP280;47622;47.726;3.298;2023-06-22T02:51:05;98864.78;;;20.14
61703;BMP280;47622;47.726;3.298;2023-06-22T02:53:31;98878.88;;;20.11
61703;BMP280;47622;47.726;3.298;2023-06-22T02:55:57;98878.03;;;20.00
61703;BMP280;47622;47.726;3.298;2023-06-22T02:58:24;98877.69;;;20.01
61703;BMP280;47622;47.726;3.298;2023-06-22T03:00:50;98864.38;;;20.05
61703;BMP280;47622;47.726;3.298;2023-06-22T03:03:19;98850.66;;;19.99
61703;BMP280;47622;47.726;3.298;2023-06-22T03:05:45;98843.00;;;19.94
61703;BMP280;47622;47.726;3.298;2023-06-22T03:08:10;98841.53;;;20.00
61703;BMP280;47622;47.726;3.298;2023-06-22T03:10:36;98843.06;;;20.01
61703;BMP280;47622;47.726;3.298;2023-06-22T03:13:01;98847.22;;;19.99
61703;BMP280;47622;47.726;3.298;2023-06-22T03:15:27;98842.63;;;19.88
61703;BMP280;47622;47.726;3.298;2023-06-22T03:17:54;98829.28;;;19.85
61703;BMP280;47622;47.726;3.298;2023-06-22T03:20:20;98814.84;;;19.82
61703;BMP280;47622;47.726;3.298;2023-06-22T03:22:46;98816.34;;;19.83
61703;BMP280;47622;47.726;3.298;2023-06-22T03:25:13;98821.69;;;19.90
61703;BMP280;47622;47.726;3.298;2023-06-22T03:27:40;98802.63;;;19.81
61703;BMP280;47622;47.726;3.298;2023-06-22T03:30:08;98812.13;;;19.75
61703;BMP280;47622;47.726;3.298;2023-06-22T03:32:34;98806.81;;;19.75
61703;BMP280;47622;47.726;3.298;2023-06-22T03:35:00;98798.81;;;19.75
61703;BMP280;47622;47.726;3.298;2023-06-22T03:37:27;98798.44;;;19.73
61703;BMP280;47622;47.726;3.298;2023-06-22T03:39:53;98782.06;;;19.71
61703;BMP280;47622;47.726;3.298;2023-06-22T03:42:19;98771.00;;;19.62
61703;BMP280;47622;47.726;3.298;2023-06-22T03:44:44;98766.03;;;19.57
61703;BMP280;47622;47.726;3.298;2023-06-22T03:47:10;98758.41;;;19.55
61703;BMP280;47622;47.726;3.298;2023-06-22T03:49:35;98746.22;;;19.54
61703;BMP280;47622;47.726;3.298;2023-06-22T03:52:02;98746.28;;;19.58
61703;BMP280;47622;47.726;3.298;2023-06-22T03:54:31;98741.31;;;19.53
61703;BMP280;47622;47.726;3.298;2023-06-22T03:56:57;98729.50;;;19.50
61703;BMP280;47622;47.726;3.298;2023-06-22T03:59:23;98721.84;;;19.42
61703;BMP280;47622;47.726;3.298;2023-06-22T04:01:49;98716.94;;;19.47
61703;BMP280;47622;47.726;3.298;2023-06-22T04:04:18;98726.84;;;19.50
61703;BMP280;47622;47.726;3.298;2023-06-22T04:06:44;98734.81;;;19.47
61703;BMP280;47622;47.726;3.298;2023-06-22T04:09:10;98731.00;;;19.44
61703;BMP280;47622;47.726;3.298;2023-06-22T04:11:35;98726.44;;;19.45
61703;BMP280;47622;47.726;3.298;2023-06-22T04:14:01;98714.72;;;19.53
61703;BMP280;47622;47.726;3.298;2023-06-22T04:16:27;98715.81;;;19.48
61703;BMP280;47622;47.726;3.298;2023-06-22T04:18:52;98715.06;;;19.48
61703;BMP280;47622;47.726;3.298;2023-06-22T04:21:18;98713.53;;;19.47
61703;BMP280;47622;47.726;3.298;2023-06-22T04:23:45;98723.78;;;19.45
61703;BMP280;47622;47.726;3.298;2023-06-22T04:26:12;98740.88;;;19.47
61703;BMP280;47622;47.726;3.298;2023-06-22T04:28:37;98776.56;;;19.43
61703;BMP280;47622;47.726;3.298;2023-06-22T04:31:03;98796.31;;;19.42
61703;BMP280;47622;47.726;3.298;2023-06-22T04:33:30;98814.56;;;19.40
61703;BMP280;47622;47.726;3.298;2023-06-22T04:35:55;98828.97;;;19.35
61703;BMP280;47622;47.726;3.298;2023-06-22T04:38:26;98847.91;;;19.30
61703;BMP280;47622;47.726;3.298;2023-06-22T04:40:52;98888.88;;;19.22
61703;BMP280;47622;47.726;3.298;2023-06-22T04:43:19;98925.69;;;19.23
61703;BMP280;47622;47.726;3.298;2023-06-22T04:45:44;98953.41;;;19.19
61703;BMP280;47622;47.726;3.298;2023-06-22T04:48:10;98893.28;;;19.07
61703;BMP280;47622;47.726;3.298;2023-06-22T04:50:41;98914.09;;;18.98
61703;BMP280;47622;47.726;3.298;2023-06-22T04:53:07;98936.34;;;18.86
61703;BMP280;47622;47.726;3.298;2023-06-22T04:55:35;98955.31;;;18.85
61703;BMP280;47622;47.726;3.298;2023-06-22T04:58:03;98912.19;;;18.99
61703;BMP280;47622;47.726;3.298;2023-06-22T05:00:31;98754.25;;;19.00
61703;BMP280;47622;47.726;3.298;2023-06-22T05:02:58;98715.81;;;18.90
61703;BMP280;47622;47.726;3.298;2023-06-22T05:05:24;98704.75;;;18.84
61703;BMP280;47622;47.726;3.298;2023-06-22T05:07:52;98707.44;;;18.88
61703;BMP280;47622;47.726;3.298;2023-06-22T05:10:22;98753.75;;;18.87
61703;BMP280;47622;47.726;3.298;2023-06-22T05:12:47;98759.44;;;18.82
61703;BMP280;47622;47.726;3.298;2023-06-22T05:15:13;98777.69;;;18.90
61703;BMP280;47622;47.726;3.298;2023-06-22T05:17:40;98768.56;;;18.91
61703;BMP280;47622;47.726;3.298;2023-06-22T05:20:11;98748.88;;;18.96
61703;BMP280;47622;47.726;3.298;2023-06-22T05:22:38;98757.28;;;18.98
61703;BMP280;47622;47.726;3.298;2023-06-22T05:25:09;98762.25;;;19.07
61703;BMP280;47622;47.726;3.298;2023-06-22T05:27:35;98763.34;;;19.02
61703;BMP280;47622;47.726;3.298;2023-06-22T05:30:08;98771.34;;;19.02
61703;BMP280;47622;47.726;3.298;2023-06-22T05:32:35;98769.09;;;19.08
61703;BMP280;47622;47.726;3.298;2023-06-22T05:35:02;98785.06;;;19.08
61703;BMP280;47622;47.726;3.298;2023-06-22T05:37:28;98803.03;;;19.21
61703;BMP280;47622;47.726;3.298;2023-06-22T05:39:54;98797.28;;;19.16
61703;BMP280;47622;47.726;3.298;2023-06-22T05:42:21;98796.97;;;19.24
61703;BMP280;47622;47.726;3.298;2023-06-22T05:44:46;98782.53;;;19.25
61703;BMP280;47622;47.726;3.298;2023-06-22T05:47:14;98797.03;;;19.32
61703;BMP280;47622;47.726;3.298;2023-06-22T05:49:40;98801.63;;;19.35
61703;BMP280;47622;47.726;3.298;2023-06-22T05:52:06;98798.53;;;19.33
61703;BMP280;47622;47.726;3.298;2023-06-22T05:54:32;98812.25;;;19.38
61703;BMP280;47622;47.726;3.298;2023-06-22T05:56:57;98805.47;;;19.41
61703;BMP280;47622;47.726;3.298;2023-06-22T05:59:23;98796.38;;;19.49
61703;BMP280;47622;47.726;3.298;2023-06-22T06:01:48;98791.78;;;19.46
61703;BMP280;47622;47.726;3.298;2023-06-22T06:04:18;98795.66;;;19.52
61703;BMP280;47622;47.726;3.298;2023-06-22T06:06:44;98790.34;;;19.59
61703;BMP280;47622;47.726;3.298;2023-06-22T06:09:10;98789.63;;;19.66
61703;BMP280;47622;47.726;3.298;2023-06-22T06:11:37;98788.88;;;19.69
61703;BMP280;47622;47.726;3.298;2023-06-22T06:14:03;98760.78;;;19.71
61703;BMP280;47622;47.726;3.298;2023-06-22T06:16:28;98757.44;;;19.85
61703;BMP280;47622;47.726;3.298;2023-06-22T06:18:54;98730.47;;;19.93
61703;BMP280;47622;47.726;3.298;2023-06-22T06:21:21;98719.84;;;20.04
61703;BMP280;47622;47.726;3.298;2023-06-22T06:23:47;98721.78;;;20.18
61703;BMP280;47622;47.726;3.298;2023-06-22T06:26:13;98704.69;;;20.26
61703;BMP280;47622;47.726;3.298;2023-06-22T06:28:41;98691.38;;;20.47
61703;BMP280;47622;47.726;3.298;2023-06-22T06:31:07;98675.03;;;20.74
61703;BMP280;47622;47.726;3.298;2023-06-22T06:33:34;98664.25;;;21.09
61703;BMP280;47622;47.726;3.298;2023-06-22T06:35:59;98665.66;;;21.46
61703;BMP280;47622;47.726;3.298;2023-06-22T06:38:27;98667.91;;;21.58
61703;BMP280;47622;47.726;3.298;2023-06-22T06:40:53;98649.59;;;21.56
61703;BMP280;47622;47.726;3.298;2023-06-22T06:43:19;98648.91;;;21.45
61703;BMP280;47622;47.726;3.298;2023-06-22T06:45:44;98652.78;;;21.30
61703;BMP280;47622;47.726;3.298;2023-06-22T06:48:10;98647.91;;;21.07
61703;BMP280;47622;47.726;3.298;2023-06-22T06:50:35;98657.41;;;21.08
61703;BMP280;47622;47.726;3.298;2023-06-22T06:53:01;98644.44;;;21.21
61703;BMP280;47622;47.726;3.298;2023-06-22T06:55:27;98637.97;;;21.18
61703;BMP280;47622;47.726;3.298;2023-06-22T06:57:54;98644.50;;;21.03
61703;BMP280;47622;47.726;3.298;2023-06-22T07:00:19;98638.44;;;20.99
61703;BMP280;47622;47.726;3.298;2023-06-22T07:02:46;98644.50;;;20.99
61703;BMP280;47622;47.726;3.298;2023-06-22T07:05:13;98644.16;;;20.94
61703;BMP280;47622;47.726;3.298;2023-06-22T07:07:39;98641.88;;;20.82
61703;BMP280;47622;47.726;3.298;2023-06-22T07:10:05;98643.38;;;20.72
61703;BMP280;47622;47.726;3.298;2023-06-22T07:12:31;98652.19;;;20.66
61703;BMP280;47622;47.726;3.298;2023-06-22T07:15:07;98646.84;;;20.55
61703;BMP280;47622;47.726;3.298;2023-06-22T07:17:38;98648.38;;;20.42
61703;BMP280;47622;47.726;3.298;2023-06-22T07:20:07;98655.25;;;20.32
61703;BMP280;47622;47.726;3.298;2023-06-22T07:22:42;98673.50;;;20.30
61703;BMP280;47622;47.726;3.298;2023-06-22T07:25:08;98662.81;;;20.37
61703;BMP280;47622;47.726;3.298;2023-06-22T07:27:43;98665.91;;;20.36
61703;BMP280;47622;47.726;3.298;2023-06-22T07:30:09;98671.19;;;20.39
61703;BMP280;47622;47.726;3.298;2023-06-22T07:32:36;98668.19;;;20.41
61703;BMP280;47622;47.726;3.298;2023-06-22T07:35:02;98672.00;;;20.36
61703;BMP280;47622;47.726;3.298;2023-06-22T07:37:28;98678.06;;;20.44
61703;BMP280;47622;47.726;3.298;2023-06-22T07:39:55;98689.50;;;20.51
61703;BMP280;47622;47.726;3.298;2023-06-22T07:42:27;98684.16;;;20.58
61703;BMP280;47622;47.726;3.298;2023-06-22T07:44:53;98698.22;;;20.84
61703;BMP280;47622;47.726;3.298;2023-06-22T07:47:20;98703.91;;;21.00
61703;BMP280;47622;47.726;3.298;2023-06-22T07:49:48;98698.16;;;21.12
61703;BMP280;47622;47.726;3.298;2023-06-22T07:52:14;98696.22;;;21.30
61703;BMP280;47622;47.726;3.298;2023-06-22T07:54:39;98693.81;;;21.61
61703;BMP280;47622;47.726;3.298;2023-06-22T07:57:05;98699.44;;;22.36
61703;BMP280;47622;47.726;3.298;2023-06-22T07:59:32;98700.19;;;23.22
61703;BMP280;47622;47.726;3.298;2023-06-22T08:01:57;98695.91;;;23.28
61703;BMP280;47622;47.726;3.298;2023-06-22T08:04:23;98701.72;;;24.31
61703;BMP280;47622;47.726;3.298;2023-06-22T08:06:49;98702.94;;;24.92
61703;BMP280;47622;47.726;3.298;2023-06-22T08:09:14;98704.09;;;24.72
61703;BMP280;47622;47.726;3.298;2023-06-22T08:11:40;98719.25;;;23.85
61703;BMP280;47622;47.726;3.298;2023-06-22T08:14:06;98709.47;;;23.10
61703;BMP280;47622;47.726;3.298;2023-06-22T08:16:31;98728.78;;;22.95
61703;BMP280;47622;47.726;3.298;2023-06-22T08:18:57;98716.22;;;22.44
61703;BMP280;47622;47.726;3.298;2023-06-22T08:21:23;98735.34;;;22.42
61703;BMP280;47622;47.726;3.298;2023-06-22T08:23:49;98740.03;;;22.27
61703;BMP280;47622;47.726;3.298;2023-06-22T08:26:15;98748.84;;;22.17
61703;BMP280;47622;47.726;3.298;2023-06-22T08:28:40;98740.22;;;21.95
61703;BMP280;47622;47.726;3.298;2023-06-22T08:31:06;98747.22;;;21.68
61703;BMP280;47622;47.726;3.298;2023-06-22T08:33:31;98763.25;;;21.57
61703;BMP280;47622;47.726;3.298;2023-06-22T08:35:58;98759.47;;;21.33
61703;BMP280;47622;47.726;3.298;2023-06-22T08:38:23;98751.53;;;20.84
61703;BMP280;47622;47.726;3.298;2023-06-22T08:40:50;98767.13;;;20.46
61703;BMP280;47622;47.726;3.298;2023-06-22T08:43:15;98770.06;;;20.13
61703;BMP280;47622;47.726;3.298;2023-06-22T08:45:41;98789.88;;;20.19
61703;BMP280;47622;47.726;3.298;2023-06-22T08:48:06;98791.38;;;20.09
61703;BMP280;47622;47.726;3.298;2023-06-22T08:50:32;98793.63;;;20.04
61703;BMP280;47622;47.726;3.298;2023-06-22T08:52:57;98808.13;;;20.10
61703;BMP280;47622;47.726;3.298;2023-06-22T08:55:23;98806.50;;;19.87
61703;BMP280;47622;47.726;3.298;2023-06-22T08:57:48;98830.06;;;19.92
61703;BMP280;47622;47.726;3.298;2023-06-22T09:00:15;98836.47;;;19.81
61703;BMP280;47622;47.726;3.298;2023-06-22T09:02:43;98834.19;;;19.76
61703;BMP280;47622;47.726;3.298;2023-06-22T09:05:10;98845.84;;;19.60
61703;BMP280;47622;47.726;3.298;2023-06-22T09:07:36;98854.69;;;19.75
61703;BMP280;47622;47.726;3.298;2023-06-22T09:10:02;98850.94;;;19.80
61703;BMP280;47622;47.726;3.298;2023-06-22T09:12:32;98849.44;;;19.86
61703;BMP280;47622;47.726;3.298;2023-06-22T09:14:59;98855.25;;;20.06
61703;BMP280;47622;47.726;3.298;2023-06-22T09:17:28;98859.63;;;20.53
61703;BMP280;47622;47.726;3.298;2023-06-22T09:19:55;98880.66;;;20.86
61703;BMP280;47622;47.726;3.298;2023-06-22T09:22:21;98885.25;;;21.21
61703;BMP280;47622;47.726;3.298;2023-06-22T09:24:46;98886.00;;;21.54
61703;BMP280;47622;47.726;3.298;2023-06-22T09:27:12;98891.25;;;22.03
61703;BMP280;47622;47.726;3.298;2023-06-22T09:29:37;98892.53;;;22.61
61703;BMP280;47622;47.726;3.298;2023-06-22T09:32:03;98888.72;;;22.55
61703;BMP280;47622;47.726;3.298;2023-06-22T09:34:30;98883.50;;;22.34
61703;BMP280;47622;47.726;3.298;2023-06-22T09:36:57;98886.50;;;22.43
61703;BMP280;47622;47.726;3.298;2023-06-22T09:39:22;98883.47;;;22.41
61703;BMP280;47622;47.726;3.298;2023-06-22T09:41:48;98897.63;;;22.31
61703;BMP280;47622;47.726;3.298;2023-06-22T09:44:13;98906.81;;;22.30
61703;BMP280;47622;47.726;3.298;2023-06-22T09:46:39;98911.84;;;22.10
61703;BMP280;47622;47.726;3.298;2023-06-22T09:49:04;98921.06;;;21.88
61703;BMP280;47622;47.726;3.298;2023-06-22T09:51:30;98915.72;;;21.77
61703;BMP280;47622;47.726;3.298;2023-06-22T09:53:55;98915.38;;;21.47
61703;BMP280;47622;47.726;3.298;2023-06-22T09:56:21;98921.47;;;21.51
61703;BMP280;47622;47.726;3.298;2023-06-22T09:58:47;98928.34;;;21.52
61703;BMP280;47622;47.726;3.298;2023-06-22T10:01:15;98934.75;;;21.93
61703;BMP280;47622;47.726;3.298;2023-06-22T10:03:42;98941.16;;;22.35
61703;BMP280;47622;47.726;3.298;2023-06-22T10:06:08;98944.56;;;22.43
61703;BMP280;47622;47.726;3.298;2023-06-22T10:08:34;98950.66;;;22.50
61703;BMP280;47622;47.726;3.298;2023-06-22T10:11:00;98949.06;;;22.63
61703;BMP280;47622;47.726;3.298;2023-06-22T10:13:26;98958.59;;;22.64
61703;BMP280;47622;47.726;3.298;2023-06-22T10:15:52;98962.44;;;22.56
61703;BMP280;47622;47.726;3.298;2023-06-22T10:18:18;98951.09;;;23.11
61703;BMP280;47622;47.726;3.298;2023-06-22T10:20:48;98961.16;;;23.44
61703;BMP280;47622;47.726;3.298;2023-06-22T10:23:14;98957.59;;;23.55
61703;BMP280;47622;47.726;3.298;2023-06-22T10:25:39;98959.88;;;23.53
61703;BMP280;47622;47.726;3.298;2023-06-22T10:28:05;98952.13;;;23.21
61703;BMP280;47622;47.726;3.298;2023-06-22T10:30:32;98956.19;;;23.39
61703;BMP280;47622;47.726;3.298;2023-06-22T10:32:57;98976.84;;;23.42
61703;BMP280;47622;47.726;3.298;2023-06-22T10:35:23;98987.44;;;22.98
61703;BMP280;47622;47.726;3.298;2023-06-22T10:37:49;98986.41;;;22.77
61703;BMP280;47622;47.726;3.298;2023-06-22T10:40:17;98994.50;;;22.63
61703;BMP280;47622;47.726;3.298;2023-06-22T10:42:44;98999.38;;;22.83
61703;BMP280;47622;47.726;3.298;2023-06-22T10:45:10;99016.66;;;22.60
61703;BMP280;47622;47.726;3.298;2023-06-22T10:47:36;99012.41;;;22.66
61703;BMP280;47622;47.726;3.298;2023-06-22T10:50:02;99013.22;;;22.56
61703;BMP280;47622;47.726;3.298;2023-06-22T10:52:28;99017.00;;;22.73
61703;BMP280;47622;47.726;3.298;2023-06-22T10:54:54;99011.38;;;23.23
61703;BMP280;47622;47.726;3.298;2023-06-22T10:57:19;99018.97;;;23.31
61703;BMP280;47622;47.726;3.298;2023-06-22T10:59:45;99026.50;;;23.47
61703;BMP280;47622;47.726;3.298;2023-06-22T11:02:10;99037.78;;;23.76
61703;BMP280;47622;47.726;3.298;2023-06-22T11:04:36;99051.75;;;23.46
61703;BMP280;47622;47.726;3.298;2023-06-22T11:07:01;99048.38;;;23.38
61703;BMP280;47622;47.726;3.298;2023-06-22T11:09:27;99070.22;;;23.30
61703;BMP280;47622;47.726;3.298;2023-06-22T11:14:20;99073.53;;;22.71
61703;BMP280;47622;47.726;3.298;2023-06-22T11:16:46;99079.66;;;22.79
61703;BMP280;47622;47.726;3.298;2023-06-22T11:19:12;99076.63;;;22.56
61703;BMP280;47622;47.726;3.298;2023-06-22T11:21:37;99074.31;;;22.72
61703;BMP280;47622;47.726;3.298;2023-06-22T11:24:03;99066.56;;;23.02
61703;BMP280;47622;47.726;3.298;2023-06-22T11:26:29;99068.84;;;23.00
61703;BMP280;47622;47.726;3.298;2023-06-22T11:28:55;99075.03;;;22.87
61703;BMP280;47622;47.726;3.298;2023-06-22T11:31:20;99084.13;;;23.03
61703;BMP280;47622;47.726;3.298;2023-06-22T11:33:46;99084.50;;;23.02
61703;BMP280;47622;47.726;3.298;2023-06-22T11:36:13;99097.94;;;22.84
61703;BMP280;47622;47.726;3.298;2023-06-22T11:38:39;99095.31;;;22.66
61703;BMP280;47622;47.726;3.298;2023-06-22T11:41:08;99099.53;;;22.71
61703;BMP280;47622;47.726;3.298;2023-06-22T11:43:34;99105.31;;;22.34
61703;BMP280;47622;47.726;3.298;2023-06-22T11:46:01;99113.34;;;22.34
61703;BMP280;47622;47.726;3.298;2023-06-22T11:48:27;99108.41;;;22.22
61703;BMP280;47622;47.726;3.298;2023-06-22T11:50:53;99110.69;;;21.91
61703;BMP280;47622;47.726;3.298;2023-06-22T11:53:21;99112.97;;;22.18
61703;BMP280;47622;47.726;3.298;2023-06-22T11:55:47;99110.69;;;22.27
61703;BMP280;47622;47.726;3.298;2023-06-22T11:58:13;99113.31;;;22.66
61703;BMP280;47622;47.726;3.298;2023-06-22T12:00:39;99118.19;;;22.82
61703;BMP280;47622;47.726;3.298;2023-06-22T12:03:04;99117.88;;;22.51
61703;BMP280;47622;47.726;3.298;2023-06-22T12:05:30;99110.63;;;22.69
61703;BMP280;47622;47.726;3.298;2023-06-22T12:07:56;99128.19;;;22.63
61703;BMP280;47622;47.726;3.298;2023-06-22T12:10:22;99124.00;;;22.41
61703;BMP280;47622;47.726;3.298;2023-06-22T12:12:49;99133.19;;;22.47
61703;BMP280;47622;47.726;3.298;2023-06-22T12:15:14;99126.31;;;22.39
61703;BMP280;47622;47.726;3.298;2023-06-22T12:17:40;99134.72;;;22.37
61703;BMP280;47622;47.726;3.298;2023-06-22T12:20:06;99133.19;;;22.40
61703;BMP280;47622;47.726;3.298;2023-06-22T12:22:33;99131.66;;;21.96
61703;BMP280;47622;47.726;3.298;2023-06-22T12:25:00;99123.97;;;21.70
61703;BMP280;47622;47.726;3.298;2023-06-22T12:27:26;99132.72;;;21.53
61703;BMP280;47622;47.726;3.298;2023-06-22T12:29:51;99133.47;;;21.50
61703;BMP280;47622;47.726;3.298;2023-06-22T12:32:17;99132.28;;;21.37
61703;BMP280;47622;47.726;3.298;2023-06-22T12:34:43;99133.09;;;21.48
61703;BMP280;47622;47.726;3.298;2023-06-22T12:37:09;99133.91;;;21.73
61703;BMP280;47622;47.726;3.298;2023-06-22T12:39:35;99129.28;;;21.56
61703;BMP280;47622;47.726;3.298;2023-06-22T12:42:00;99136.97;;;21.68
61703;BMP280;47622;47.726;3.298;2023-06-22T12:44:26;99140.75;;;21.67
61703;BMP280;47622;47.726;3.298;2023-06-22T12:46:51;99146.50;;;21.76
61703;BMP280;47622;47.726;3.298;2023-06-22T12:49:17;99150.25;;;21.54
61703;BMP280;47622;47.726;3.298;2023-06-22T12:51:43;99155.16;;;21.45
61703;BMP280;47622;47.726;3.298;2023-06-22T12:54:10;99157.84;;;21.45
61703;BMP280;47622;47.726;3.298;2023-06-22T12:56:35;99161.25;;;21.45
61703;BMP280;47622;47.726;3.298;2023-06-22T12:59:01;99163.47;;;21.22
61703;BMP280;47622;47.726;3.298;2023-06-22T13:01:30;99164.97;;;21.16
61703;BMP280;47622;47.726;3.298;2023-06-22T13:03:56;99161.72;;;20.82
61703;BMP280;47622;47.726;3.298;2023-06-22T13:06:22;99166.34;;;20.92
61703;BMP280;47622;47.726;3.298;2023-06-22T13:08:47;99170.16;;;20.91
61703;BMP280;47622;47.726;3.298;2023-06-22T13:11:13;99169.03;;;20.95
61703;BMP280;47622;47.726;3.298;2023-06-22T13:13:39;99174.69;;;20.83
61703;BMP280;47622;47.726;3.298;2023-06-22T13:16:05;99173.09;;;20.79
61703;BMP280;47622;47.726;3.298;2023-06-22T13:18:30;99174.03;;;21.01
61703;BMP280;47622;47.726;3.298;2023-06-22T13:20:56;99174.88;;;21.12
61703;BMP280;47622;47.726;3.298;2023-06-22T13:23:23;99161.16;;;21.20
61703;BMP280;47622;47.726;3.298;2023-06-22T13:25:49;99171.09;;;21.23
61703;BMP280;47622;47.726;3.298;2023-06-22T13:28:14;99171.88;;;21.24
61703;BMP280;47622;47.726;3.298;2023-06-22T13:30:41;99165.78;;;21.27
61703;BMP280;47622;47.726;3.298;2023-06-22T13:33:08;99176.81;;;21.29
61703;BMP280;47622;47.726;3.298;2023-06-22T13:35:34;99178.91;;;21.64
61703;BMP280;47622;47.726;3.298;2023-06-22T13:38:00;99177.09;;;22.03
61703;BMP280;47622;47.726;3.298;2023-06-22T13:40:26;99177.47;;;22.13
61703;BMP280;47622;47.726;3.298;2023-06-22T13:42:52;99183.16;;;21.86
61703;BMP280;47622;47.726;3.298;2023-06-22T13:45:17;99182.06;;;22.30
61703;BMP280;47622;47.726;3.298;2023-06-22T13:47:44;99188.56;;;22.50
61703;BMP280;47622;47.726;3.298;2023-06-22T13:50:09;99193.53;;;22.48
61703;BMP280;47622;47.726;3.298;2023-06-22T13:52:35;99184.75;;;22.33
61703;BMP280;47622;47.726;3.298;2023-06-22T13:55:02;99186.28;;;22.49
61703;BMP280;47622;47.726;3.298;2023-06-22T13:57:29;99185.88;;;22.47
61703;BMP280;47622;47.726;3.298;2023-06-22T13:59:54;99182.81;;;22.20
61703;BMP280;47622;47.726;3.298;2023-06-22T14:02:20;99199.13;;;21.72
61703;BMP280;47622;47.726;3.298;2023-06-22T14:04:45;99204.44;;;21.65
61703;BMP280;47622;47.726;3.298;2023-06-22T14:07:11;99197.94;;;21.52
61703;BMP280;47622;47.726;3.298;2023-06-22T14:09:36;99211.66;;;21.54
61703;BMP280;47622;47.726;3.298;2023-06-22T14:12:06;99207.06;;;21.51
61703;BMP280;47622;47.726;3.298;2023-06-22T14:14:32;99207.72;;;21.26
61703;BMP280;47622;47.726;3.298;2023-06-22T14:16:58;99206.75;;;20.94
61703;BMP280;47622;47.726;3.298;2023-06-22T14:19:25;99222.78;;;21.01